612  
UXUS97 KREV 021333  
SRGREV  
 
SOARING FORECAST  
NATIONAL WEATHER SERVICE - RENO NV  
700 AM PDT THU JUL 2 2020  
 
THIS SOARING FORECAST IS FOR THE EASTERN SIERRA AND WESTERN NEVADA  
WITH SPECIFIC INDICES FOR THE GREATER RENO AREA.  
 
THIS FORECAST IS PREPARED DAILY BY 700 AM AND IS NOT UPDATED.  
 
FOR CURRENT FLIGHT CONDITIONS...FORECASTS...AND ADVISORIES...ACCESS  
YOUR LOCAL BRIEFING OUTLET OR FLIGHT SERVICE STATION.  
 
*******************************************************************  
FORECASTED LOCAL INDICES FOR RENO: TODAY YESTERDAY  
FORECASTED MAX TEMP AT RENO (DEG F)..... 87 87  
FORECASTED TRIGGER TEMPERATURE (DEG F).. 68 68  
EXCEEDED YESTERDAY BY 955 AM PDT  
FORECASTED MAXIMUM ALTITUDE (FT MSL).... 16700 15500  
FORECASTED SOARING INDEX (FPM).......... 981 855  
FORECASTED K-INDEX.........VALID 18Z.... 24 7  
FORECASTED K-INDEX.........VALID 00Z.... 21 16  
FORECASTED LIFTED INDEX....VALID 18Z.... 3 8  
FORECASTED LIFTED INDEX....VALID 00Z.... 0 4  
 
AFTERNOON WINDS ALOFT FORECAST  
MSL (FT) WIND/TEMP  
9000 2609/+14  
10000 2409/+11  
12000 2408/+05  
14000 2311/+00  
16000 2315/-06  
18000 2328/-12  
24000 2334/-25  
30000 2453/-39  
34000 2460/-47  
39000 2462/-54  
 
SLIDE MOUNTAIN DATA:  
DATE TIME TEMP DEWPT RH WIND (MPH)  
(F) (F) | DIR SPEED GUST  
2020-07-02 05:50 42 37 74 | 254 9 14  
2020-07-02 05:30 42 37 74 | 256 12 16  
2020-07-02 05:20 42 36 72 | 252 9 13  
2020-07-02 05:00 42 36 71 | 253 10 14  
 
SIERRA CREST 8700 FT DATA:  
DATE TIME TEMP RH WIND  
DIR SPEED GUST  
2020-07-02 0600 46 72 164 0 0  
2020-07-02 0545 46 71 163 0 0  
2020-07-02 0530 46 70 163 0 0  
2020-07-02 0515 46 70 162 0 0  
 
RENO TAF FORECAST:  
KRNO 021157Z 0212/0312 VRB03KT P6SM SKC  
FM022200 28012G20KT P6SM FEW100 FEW250  
FM030400 VRB03KT P6SM SKC  
 
MINDEN TAF FORECAST:  
KMEV 021157Z 0212/0312 12006KT P6SM SKC  
FM022000 28010G20KT P6SM FEW080 FEW250  
FM030400 12006KT P6SM SKC  
 
OUTLOOK FOR THE RENO-CARSON CITY-MINDEN AREA:   
FRIDAY
 
SUNNY. HIGHS 85 TO 90. LIGHT WINDS BECOMING SOUTHWEST  
10 TO 15 MPH WITH GUSTS UP TO 30 MPH IN THE AFTERNOON.  
 
SUNRISE AND SUNSET  
JULY 2 2020..........SUNRISE 536 AM PDT SUNSET 830 PM PDT  
JULY 3 2020..........SUNRISE 537 AM PDT SUNSET 830 PM PDT  
 
CLICK HERE TO GO TO PREVIOUS BULLETINS.

The Nexlab NV Page
The Nexlab CA Page Main Text Page